sensor_id;sensor_type;location;lat;lon;timestamp;temperature;humidity
54272;DHT22;40184;53.362;5.216;2022-08-19T00:02:05;18.90;99.90
54272;DHT22;40184;53.362;5.216;2022-08-19T00:04:33;18.70;99.90
54272;DHT22;40184;53.362;5.216;2022-08-19T00:07:03;18.60;99.90
54272;DHT22;40184;53.362;5.216;2022-08-19T00:09:29;18.50;99.90
54272;DHT22;40184;53.362;5.216;2022-08-19T00:11:56;18.70;99.90
54272;DHT22;40184;53.362;5.216;2022-08-19T00:14:23;18.40;99.90
54272;DHT22;40184;53.362;5.216;2022-08-19T00:16:50;18.50;99.90
54272;DHT22;40184;53.362;5.216;2022-08-19T00:19:20;18.50;99.90
54272;DHT22;40184;53.362;5.216;2022-08-19T00:21:46;18.60;99.90
54272;DHT22;40184;53.362;5.216;2022-08-19T00:24:13;18.90;99.90
54272;DHT22;40184;53.362;5.216;2022-08-19T00:26:40;18.60;99.90
54272;DHT22;40184;53.362;5.216;2022-08-19T00:29:09;18.70;99.90
54272;DHT22;40184;53.362;5.216;2022-08-19T00:31:34;18.50;99.90
54272;DHT22;40184;53.362;5.216;2022-08-19T00:34:01;19.00;99.90
54272;DHT22;40184;53.362;5.216;2022-08-19T00:36:26;18.90;99.90
54272;DHT22;40184;53.362;5.216;2022-08-19T00:38:53;19.00;99.90
54272;DHT22;40184;53.362;5.216;2022-08-19T00:41:21;18.30;99.90
54272;DHT22;40184;53.362;5.216;2022-08-19T00:44:06;18.90;99.90
54272;DHT22;40184;53.362;5.216;2022-08-19T00:46:34;18.90;99.90
54272;DHT22;40184;53.362;5.216;2022-08-19T00:49:13;18.50;99.90
54272;DHT22;40184;53.362;5.216;2022-08-19T00:51:41;18.90;99.90
54272;DHT22;40184;53.362;5.216;2022-08-19T00:54:08;18.50;99.90
54272;DHT22;40184;53.362;5.216;2022-08-19T00:56:35;18.50;99.90
54272;DHT22;40184;53.362;5.216;2022-08-19T00:59:02;18.90;99.90
54272;DHT22;40184;53.362;5.216;2022-08-19T01:01:27;18.90;99.90
54272;DHT22;40184;53.362;5.216;2022-08-19T01:03:53;18.40;99.90
54272;DHT22;40184;53.362;5.216;2022-08-19T01:06:19;18.80;99.90
54272;DHT22;40184;53.362;5.216;2022-08-19T01:08:45;18.80;99.90
54272;DHT22;40184;53.362;5.216;2022-08-19T01:11:11;18.30;99.90
54272;DHT22;40184;53.362;5.216;2022-08-19T01:13:37;18.30;99.90
54272;DHT22;40184;53.362;5.216;2022-08-19T01:16:06;18.60;99.90
54272;DHT22;40184;53.362;5.216;2022-08-19T01:18:36;18.60;99.90
54272;DHT22;40184;53.362;5.216;2022-08-19T01:21:22;18.80;99.90
54272;DHT22;40184;53.362;5.216;2022-08-19T01:23:49;18.30;99.90
54272;DHT22;40184;53.362;5.216;2022-08-19T01:26:19;18.40;99.90
54272;DHT22;40184;53.362;5.216;2022-08-19T01:28:48;18.30;99.90
54272;DHT22;40184;53.362;5.216;2022-08-19T01:31:19;18.80;99.90
54272;DHT22;40184;53.362;5.216;2022-08-19T01:33:47;18.70;99.90
54272;DHT22;40184;53.362;5.216;2022-08-19T01:36:16;18.40;99.90
54272;DHT22;40184;53.362;5.216;2022-08-19T01:38:48;18.70;99.90
54272;DHT22;40184;53.362;5.216;2022-08-19T01:41:13;18.20;99.90
54272;DHT22;40184;53.362;5.216;2022-08-19T01:43:40;18.30;99.90
54272;DHT22;40184;53.362;5.216;2022-08-19T01:46:06;18.20;99.90
54272;DHT22;40184;53.362;5.216;2022-08-19T01:48:37;18.50;99.90
54272;DHT22;40184;53.362;5.216;2022-08-19T01:51:04;18.30;99.90
54272;DHT22;40184;53.362;5.216;2022-08-19T01:53:30;18.20;99.90
54272;DHT22;40184;53.362;5.216;2022-08-19T01:55:55;18.50;99.90
54272;DHT22;40184;53.362;5.216;2022-08-19T01:58:26;18.30;99.90
54272;DHT22;40184;53.362;5.216;2022-08-19T02:00:53;18.30;99.90
54272;DHT22;40184;53.362;5.216;2022-08-19T02:03:19;18.90;99.90
54272;DHT22;40184;53.362;5.216;2022-08-19T02:05:45;18.80;99.90
54272;DHT22;40184;53.362;5.216;2022-08-19T02:08:11;18.80;99.90
54272;DHT22;40184;53.362;5.216;2022-08-19T02:10:42;18.80;99.90
54272;DHT22;40184;53.362;5.216;2022-08-19T02:13:09;18.90;99.90
54272;DHT22;40184;53.362;5.216;2022-08-19T02:15:35;18.30;99.90
54272;DHT22;40184;53.362;5.216;2022-08-19T02:18:00;18.80;99.90
54272;DHT22;40184;53.362;5.216;2022-08-19T02:20:26;18.20;99.90
54272;DHT22;40184;53.362;5.216;2022-08-19T02:22:52;18.80;99.90
54272;DHT22;40184;53.362;5.216;2022-08-19T02:25:17;18.40;99.90
54272;DHT22;40184;53.362;5.216;2022-08-19T02:27:43;18.70;99.90
54272;DHT22;40184;53.362;5.216;2022-08-19T02:30:12;18.60;99.90
54272;DHT22;40184;53.362;5.216;2022-08-19T02:32:38;18.30;99.90
54272;DHT22;40184;53.362;5.216;2022-08-19T02:35:05;18.30;99.90
54272;DHT22;40184;53.362;5.216;2022-08-19T02:37:30;18.30;99.90
54272;DHT22;40184;53.362;5.216;2022-08-19T02:40:14;18.70;99.90
54272;DHT22;40184;53.362;5.216;2022-08-19T02:42:43;18.30;99.90
54272;DHT22;40184;53.362;5.216;2022-08-19T02:45:09;18.50;99.90
54272;DHT22;40184;53.362;5.216;2022-08-19T02:47:35;18.50;99.90
54272;DHT22;40184;53.362;5.216;2022-08-19T02:50:02;18.50;99.90
54272;DHT22;40184;53.362;5.216;2022-08-19T02:52:28;18.80;99.90
54272;DHT22;40184;53.362;5.216;2022-08-19T02:54:54;18.80;99.90
54272;DHT22;40184;53.362;5.216;2022-08-19T02:57:20;18.60;99.90
54272;DHT22;40184;53.362;5.216;2022-08-19T02:59:46;18.40;99.90
54272;DHT22;40184;53.362;5.216;2022-08-19T03:02:12;18.90;99.90
54272;DHT22;40184;53.362;5.216;2022-08-19T03:04:37;18.70;99.90
54272;DHT22;40184;53.362;5.216;2022-08-19T03:07:03;18.50;99.90
54272;DHT22;40184;53.362;5.216;2022-08-19T03:09:29;18.70;99.90
54272;DHT22;40184;53.362;5.216;2022-08-19T03:11:55;18.70;99.90
54272;DHT22;40184;53.362;5.216;2022-08-19T03:14:21;18.70;99.90
54272;DHT22;40184;53.362;5.216;2022-08-19T03:16:48;18.30;99.90
54272;DHT22;40184;53.362;5.216;2022-08-19T03:19:17;18.70;99.90
54272;DHT22;40184;53.362;5.216;2022-08-19T03:21:44;18.70;99.90
54272;DHT22;40184;53.362;5.216;2022-08-19T03:24:10;18.60;99.90
54272;DHT22;40184;53.362;5.216;2022-08-19T03:26:46;18.40;99.90
54272;DHT22;40184;53.362;5.216;2022-08-19T03:29:14;18.60;99.90
54272;DHT22;40184;53.362;5.216;2022-08-19T03:31:41;18.50;99.90
54272;DHT22;40184;53.362;5.216;2022-08-19T03:34:09;18.90;99.90
54272;DHT22;40184;53.362;5.216;2022-08-19T03:36:37;19.10;99.90
54272;DHT22;40184;53.362;5.216;2022-08-19T03:39:04;19.00;99.90
54272;DHT22;40184;53.362;5.216;2022-08-19T03:41:35;19.10;99.90
54272;DHT22;40184;53.362;5.216;2022-08-19T03:44:02;19.10;99.90
54272;DHT22;40184;53.362;5.216;2022-08-19T03:46:31;18.60;99.90
54272;DHT22;40184;53.362;5.216;2022-08-19T03:48:59;18.80;99.90
54272;DHT22;40184;53.362;5.216;2022-08-19T03:51:32;18.60;99.90
54272;DHT22;40184;53.362;5.216;2022-08-19T03:53:59;18.90;99.90
54272;DHT22;40184;53.362;5.216;2022-08-19T03:56:26;19.20;99.90
54272;DHT22;40184;53.362;5.216;2022-08-19T03:58:54;18.70;99.90
54272;DHT22;40184;53.362;5.216;2022-08-19T04:01:23;18.70;99.90
54272;DHT22;40184;53.362;5.216;2022-08-19T04:03:49;19.00;99.90
54272;DHT22;40184;53.362;5.216;2022-08-19T04:06:17;18.80;99.90
54272;DHT22;40184;53.362;5.216;2022-08-19T04:08:45;18.80;99.90
54272;DHT22;40184;53.362;5.216;2022-08-19T04:11:16;18.80;99.90
54272;DHT22;40184;53.362;5.216;2022-08-19T04:13:42;19.20;99.90
54272;DHT22;40184;53.362;5.216;2022-08-19T04:16:11;18.80;99.90
54272;DHT22;40184;53.362;5.216;2022-08-19T04:18:38;18.80;99.90
54272;DHT22;40184;53.362;5.216;2022-08-19T04:21:05;19.40;99.90
54272;DHT22;40184;53.362;5.216;2022-08-19T04:23:32;19.20;99.90
54272;DHT22;40184;53.362;5.216;2022-08-19T04:25:58;18.90;99.90
54272;DHT22;40184;53.362;5.216;2022-08-19T04:28:24;19.40;99.90
54272;DHT22;40184;53.362;5.216;2022-08-19T04:30:52;19.40;99.90
54272;DHT22;40184;53.362;5.216;2022-08-19T04:33:22;19.00;99.90
54272;DHT22;40184;53.362;5.216;2022-08-19T04:35:49;19.20;99.90
54272;DHT22;40184;53.362;5.216;2022-08-19T04:38:17;19.40;99.90
54272;DHT22;40184;53.362;5.216;2022-08-19T04:40:45;18.90;99.90
54272;DHT22;40184;53.362;5.216;2022-08-19T04:43:30;19.20;99.90
54272;DHT22;40184;53.362;5.216;2022-08-19T04:45:56;19.40;99.90
54272;DHT22;40184;53.362;5.216;2022-08-19T04:48:22;19.30;99.90
54272;DHT22;40184;53.362;5.216;2022-08-19T04:50:53;19.20;99.90
54272;DHT22;40184;53.362;5.216;2022-08-19T04:53:24;19.40;99.90
54272;DHT22;40184;53.362;5.216;2022-08-19T04:55:50;19.10;99.90
54272;DHT22;40184;53.362;5.216;2022-08-19T04:58:16;19.50;99.90
54272;DHT22;40184;53.362;5.216;2022-08-19T05:00:43;19.20;99.90
54272;DHT22;40184;53.362;5.216;2022-08-19T05:03:09;19.50;99.90
54272;DHT22;40184;53.362;5.216;2022-08-19T05:05:42;19.40;99.90
54272;DHT22;40184;53.362;5.216;2022-08-19T05:08:08;19.30;99.90
54272;DHT22;40184;53.362;5.216;2022-08-19T05:10:38;19.20;99.90
54272;DHT22;40184;53.362;5.216;2022-08-19T05:13:05;19.10;99.90
54272;DHT22;40184;53.362;5.216;2022-08-19T05:15:30;19.10;99.90
54272;DHT22;40184;53.362;5.216;2022-08-19T05:17:56;19.60;99.90
54272;DHT22;40184;53.362;5.216;2022-08-19T05:20:41;19.30;99.90
54272;DHT22;40184;53.362;5.216;2022-08-19T05:23:25;19.20;99.90
54272;DHT22;40184;53.362;5.216;2022-08-19T05:25:51;19.30;99.90
54272;DHT22;40184;53.362;5.216;2022-08-19T05:28:18;19.40;99.90
54272;DHT22;40184;53.362;5.216;2022-08-19T05:30:44;19.30;99.90
54272;DHT22;40184;53.362;5.216;2022-08-19T05:33:11;19.70;99.90
54272;DHT22;40184;53.362;5.216;2022-08-19T05:35:40;19.80;99.90
54272;DHT22;40184;53.362;5.216;2022-08-19T05:38:07;20.10;99.90
54272;DHT22;40184;53.362;5.216;2022-08-19T05:40:38;19.90;99.90
54272;DHT22;40184;53.362;5.216;2022-08-19T05:43:05;19.80;99.90
54272;DHT22;40184;53.362;5.216;2022-08-19T05:45:31;20.10;99.90
54272;DHT22;40184;53.362;5.216;2022-08-19T05:47:57;19.70;99.90
54272;DHT22;40184;53.362;5.216;2022-08-19T05:50:24;20.20;99.90
54272;DHT22;40184;53.362;5.216;2022-08-19T05:52:52;20.00;99.90
54272;DHT22;40184;53.362;5.216;2022-08-19T05:55:18;20.50;99.90
54272;DHT22;40184;53.362;5.216;2022-08-19T05:57:45;20.20;99.90
54272;DHT22;40184;53.362;5.216;2022-08-19T06:00:12;20.10;99.90
54272;DHT22;40184;53.362;5.216;2022-08-19T06:02:38;20.70;99.90
54272;DHT22;40184;53.362;5.216;2022-08-19T06:05:06;20.30;99.90
54272;DHT22;40184;53.362;5.216;2022-08-19T06:07:35;20.70;99.90
54272;DHT22;40184;53.362;5.216;2022-08-19T06:10:01;20.50;99.90
54272;DHT22;40184;53.362;5.216;2022-08-19T06:12:28;20.60;99.90
54272;DHT22;40184;53.362;5.216;2022-08-19T06:14:56;20.30;99.90
54272;DHT22;40184;53.362;5.216;2022-08-19T06:17:22;20.50;99.90
54272;DHT22;40184;53.362;5.216;2022-08-19T06:19:50;20.90;99.90
54272;DHT22;40184;53.362;5.216;2022-08-19T06:22:16;20.80;99.90
54272;DHT22;40184;53.362;5.216;2022-08-19T06:24:41;20.50;99.90
54272;DHT22;40184;53.362;5.216;2022-08-19T06:27:08;20.50;99.90
54272;DHT22;40184;53.362;5.216;2022-08-19T06:29:33;20.90;99.90
54272;DHT22;40184;53.362;5.216;2022-08-19T06:32:02;21.10;99.90
54272;DHT22;40184;53.362;5.216;2022-08-19T06:34:32;21.10;99.90
54272;DHT22;40184;53.362;5.216;2022-08-19T06:36:59;20.70;99.90
54272;DHT22;40184;53.362;5.216;2022-08-19T06:39:29;21.40;99.90
54272;DHT22;40184;53.362;5.216;2022-08-19T06:41:59;21.50;99.90
54272;DHT22;40184;53.362;5.216;2022-08-19T06:44:28;21.50;99.90
54272;DHT22;40184;53.362;5.216;2022-08-19T06:46:54;21.10;99.90
54272;DHT22;40184;53.362;5.216;2022-08-19T06:49:21;21.60;99.90
54272;DHT22;40184;53.362;5.216;2022-08-19T06:51:48;21.20;99.90
54272;DHT22;40184;53.362;5.216;2022-08-19T06:54:15;21.40;99.90
54272;DHT22;40184;53.362;5.216;2022-08-19T06:56:42;21.20;99.90
54272;DHT22;40184;53.362;5.216;2022-08-19T06:59:15;21.10;99.90
54272;DHT22;40184;53.362;5.216;2022-08-19T07:01:45;21.60;99.90
54272;DHT22;40184;53.362;5.216;2022-08-19T07:04:15;21.20;99.90
54272;DHT22;40184;53.362;5.216;2022-08-19T07:06:42;21.50;99.90
54272;DHT22;40184;53.362;5.216;2022-08-19T07:09:11;21.80;99.90
54272;DHT22;40184;53.362;5.216;2022-08-19T07:11:38;21.50;99.90
54272;DHT22;40184;53.362;5.216;2022-08-19T07:14:03;21.50;99.90
54272;DHT22;40184;53.362;5.216;2022-08-19T07:16:31;21.80;99.90
54272;DHT22;40184;53.362;5.216;2022-08-19T07:18:57;21.50;99.90
54272;DHT22;40184;53.362;5.216;2022-08-19T07:21:27;21.90;99.90
54272;DHT22;40184;53.362;5.216;2022-08-19T07:23:54;21.70;99.90
54272;DHT22;40184;53.362;5.216;2022-08-19T07:26:29;21.80;99.90
54272;DHT22;40184;53.362;5.216;2022-08-19T07:28:56;21.70;99.90
54272;DHT22;40184;53.362;5.216;2022-08-19T07:31:25;21.80;99.90
54272;DHT22;40184;53.362;5.216;2022-08-19T07:33:52;21.70;99.90
54272;DHT22;40184;53.362;5.216;2022-08-19T07:36:26;21.80;99.90
54272;DHT22;40184;53.362;5.216;2022-08-19T07:38:58;22.30;99.90
54272;DHT22;40184;53.362;5.216;2022-08-19T07:41:27;22.30;99.90
54272;DHT22;40184;53.362;5.216;2022-08-19T07:43:54;22.00;99.90
54272;DHT22;40184;53.362;5.216;2022-08-19T07:46:20;22.50;99.90
54272;DHT22;40184;53.362;5.216;2022-08-19T07:48:48;22.50;99.90
54272;DHT22;40184;53.362;5.216;2022-08-19T07:51:18;22.40;99.90
54272;DHT22;40184;53.362;5.216;2022-08-19T07:53:44;22.00;99.90
54272;DHT22;40184;53.362;5.216;2022-08-19T07:56:12;22.30;99.90
54272;DHT22;40184;53.362;5.216;2022-08-19T07:58:40;22.40;99.90
54272;DHT22;40184;53.362;5.216;2022-08-19T08:01:07;22.60;99.90
54272;DHT22;40184;53.362;5.216;2022-08-19T08:03:36;22.20;99.90
54272;DHT22;40184;53.362;5.216;2022-08-19T08:06:21;22.30;99.90
54272;DHT22;40184;53.362;5.216;2022-08-19T08:09:06;22.50;99.90
54272;DHT22;40184;53.362;5.216;2022-08-19T08:11:53;22.70;99.90
54272;DHT22;40184;53.362;5.216;2022-08-19T08:14:23;22.10;99.90
54272;DHT22;40184;53.362;5.216;2022-08-19T08:16:50;22.50;99.90
54272;DHT22;40184;53.362;5.216;2022-08-19T08:19:19;22.20;99.90
54272;DHT22;40184;53.362;5.216;2022-08-19T08:21:45;22.40;99.90
54272;DHT22;40184;53.362;5.216;2022-08-19T08:24:11;23.10;99.90
54272;DHT22;40184;53.362;5.216;2022-08-19T08:26:37;22.70;99.90
54272;DHT22;40184;53.362;5.216;2022-08-19T08:29:03;23.20;99.90
54272;DHT22;40184;53.362;5.216;2022-08-19T08:31:29;22.90;99.90
54272;DHT22;40184;53.362;5.216;2022-08-19T08:33:55;22.60;99.90
54272;DHT22;40184;53.362;5.216;2022-08-19T08:36:21;22.80;99.90
54272;DHT22;40184;53.362;5.216;2022-08-19T08:38:47;22.80;99.90
54272;DHT22;40184;53.362;5.216;2022-08-19T08:41:44;22.60;99.90
54272;DHT22;40184;53.362;5.216;2022-08-19T08:44:16;22.50;99.90
54272;DHT22;40184;53.362;5.216;2022-08-19T08:46:49;23.20;99.90
54272;DHT22;40184;53.362;5.216;2022-08-19T08:49:45;23.10;99.90
54272;DHT22;40184;53.362;5.216;2022-08-19T08:52:24;23.40;99.90
54272;DHT22;40184;53.362;5.216;2022-08-19T08:54:54;23.40;99.90
54272;DHT22;40184;53.362;5.216;2022-08-19T09:00:14;23.80;99.90
54272;DHT22;40184;53.362;5.216;2022-08-19T09:02:42;23.80;99.90
54272;DHT22;40184;53.362;5.216;2022-08-19T09:05:09;23.20;99.90
54272;DHT22;40184;53.362;5.216;2022-08-19T09:15:39;24.20;99.90
54272;DHT22;40184;53.362;5.216;2022-08-19T09:18:06;24.50;99.90
54272;DHT22;40184;53.362;5.216;2022-08-19T09:20:33;24.70;99.90
54272;DHT22;40184;53.362;5.216;2022-08-19T09:22:59;24.20;99.90
54272;DHT22;40184;53.362;5.216;2022-08-19T09:25:25;24.30;99.90
54272;DHT22;40184;53.362;5.216;2022-08-19T09:27:52;24.80;99.90
54272;DHT22;40184;53.362;5.216;2022-08-19T09:30:25;24.90;99.90
54272;DHT22;40184;53.362;5.216;2022-08-19T09:32:52;24.60;99.90
54272;DHT22;40184;53.362;5.216;2022-08-19T09:35:19;24.70;99.90
54272;DHT22;40184;53.362;5.216;2022-08-19T09:37:47;24.30;99.90
54272;DHT22;40184;53.362;5.216;2022-08-19T09:40:15;24.70;99.90
54272;DHT22;40184;53.362;5.216;2022-08-19T09:42:42;24.60;99.90
54272;DHT22;40184;53.362;5.216;2022-08-19T09:45:09;25.00;99.90
54272;DHT22;40184;53.362;5.216;2022-08-19T09:47:36;24.70;99.90
54272;DHT22;40184;53.362;5.216;2022-08-19T09:50:05;24.90;99.90
54272;DHT22;40184;53.362;5.216;2022-08-19T09:52:32;24.90;99.90
54272;DHT22;40184;53.362;5.216;2022-08-19T09:54:58;25.40;99.90
54272;DHT22;40184;53.362;5.216;2022-08-19T09:57:24;25.20;99.90
54272;DHT22;40184;53.362;5.216;2022-08-19T09:59:49;25.10;99.90
54272;DHT22;40184;53.362;5.216;2022-08-19T10:02:15;25.00;99.90
54272;DHT22;40184;53.362;5.216;2022-08-19T10:04:40;24.90;99.90
54272;DHT22;40184;53.362;5.216;2022-08-19T10:07:24;25.00;99.90
54272;DHT22;40184;53.362;5.216;2022-08-19T10:09:50;24.80;99.90
54272;DHT22;40184;53.362;5.216;2022-08-19T10:12:16;25.10;99.90
54272;DHT22;40184;53.362;5.216;2022-08-19T10:14:41;25.10;99.90
54272;DHT22;40184;53.362;5.216;2022-08-19T10:17:07;24.90;99.90
54272;DHT22;40184;53.362;5.216;2022-08-19T10:19:33;25.30;99.90
54272;DHT22;40184;53.362;5.216;2022-08-19T10:22:05;25.40;99.90
54272;DHT22;40184;53.362;5.216;2022-08-19T10:24:33;25.10;99.90
54272;DHT22;40184;53.362;5.216;2022-08-19T10:27:00;24.80;99.90
54272;DHT22;40184;53.362;5.216;2022-08-19T10:29:29;24.60;99.90
54272;DHT22;40184;53.362;5.216;2022-08-19T10:31:57;24.70;99.90
54272;DHT22;40184;53.362;5.216;2022-08-19T10:34:24;24.70;99.90
54272;DHT22;40184;53.362;5.216;2022-08-19T10:36:50;24.90;99.90
54272;DHT22;40184;53.362;5.216;2022-08-19T10:39:16;24.90;99.90
54272;DHT22;40184;53.362;5.216;2022-08-19T10:41:42;24.60;99.90
54272;DHT22;40184;53.362;5.216;2022-08-19T10:44:10;24.80;99.90
54272;DHT22;40184;53.362;5.216;2022-08-19T10:46:40;24.60;99.90
54272;DHT22;40184;53.362;5.216;2022-08-19T10:49:09;24.40;99.90
54272;DHT22;40184;53.362;5.216;2022-08-19T10:51:37;24.20;99.90
54272;DHT22;40184;53.362;5.216;2022-08-19T10:54:22;24.30;99.90
54272;DHT22;40184;53.362;5.216;2022-08-19T10:56:48;24.50;99.90
54272;DHT22;40184;53.362;5.216;2022-08-19T11:01:47;24.50;99.90
54272;DHT22;40184;53.362;5.216;2022-08-19T11:04:13;24.00;99.90
54272;DHT22;40184;53.362;5.216;2022-08-19T11:06:46;23.90;99.90
54272;DHT22;40184;53.362;5.216;2022-08-19T11:09:18;24.00;99.90
54272;DHT22;40184;53.362;5.216;2022-08-19T11:11:44;23.60;99.90
54272;DHT22;40184;53.362;5.216;2022-08-19T11:14:12;23.90;99.90
54272;DHT22;40184;53.362;5.216;2022-08-19T11:16:39;23.50;99.90
54272;DHT22;40184;53.362;5.216;2022-08-19T11:19:07;24.10;99.90
54272;DHT22;40184;53.362;5.216;2022-08-19T11:21:39;23.70;99.90
54272;DHT22;40184;53.362;5.216;2022-08-19T11:24:14;23.70;99.90
54272;DHT22;40184;53.362;5.216;2022-08-19T11:26:41;23.80;99.90
54272;DHT22;40184;53.362;5.216;2022-08-19T11:29:09;23.70;99.90
54272;DHT22;40184;53.362;5.216;2022-08-19T11:31:41;24.20;99.90
54272;DHT22;40184;53.362;5.216;2022-08-19T11:34:10;24.00;99.90
54272;DHT22;40184;53.362;5.216;2022-08-19T11:36:39;23.70;99.90
54272;DHT22;40184;53.362;5.216;2022-08-19T11:39:11;23.70;99.90
54272;DHT22;40184;53.362;5.216;2022-08-19T11:41:36;24.00;99.90
54272;DHT22;40184;53.362;5.216;2022-08-19T11:44:02;23.80;99.90
54272;DHT22;40184;53.362;5.216;2022-08-19T11:46:30;24.00;99.90
54272;DHT22;40184;53.362;5.216;2022-08-19T11:48:57;24.10;99.90
54272;DHT22;40184;53.362;5.216;2022-08-19T11:51:25;24.00;99.90
54272;DHT22;40184;53.362;5.216;2022-08-19T11:53:52;23.70;99.90
54272;DHT22;40184;53.362;5.216;2022-08-19T11:56:20;24.00;99.90
54272;DHT22;40184;53.362;5.216;2022-08-19T11:58:46;24.10;99.90
54272;DHT22;40184;53.362;5.216;2022-08-19T12:01:15;24.00;99.90
54272;DHT22;40184;53.362;5.216;2022-08-19T12:03:42;23.90;99.90
54272;DHT22;40184;53.362;5.216;2022-08-19T12:06:12;23.90;99.90
54272;DHT22;40184;53.362;5.216;2022-08-19T12:08:41;24.30;99.90
54272;DHT22;40184;53.362;5.216;2022-08-19T12:11:09;24.60;99.90
54272;DHT22;40184;53.362;5.216;2022-08-19T12:13:36;24.70;99.90
54272;DHT22;40184;53.362;5.216;2022-08-19T12:16:08;24.80;99.90
54272;DHT22;40184;53.362;5.216;2022-08-19T12:18:36;25.00;99.90
54272;DHT22;40184;53.362;5.216;2022-08-19T12:21:02;25.00;99.90
54272;DHT22;40184;53.362;5.216;2022-08-19T12:23:29;25.50;99.90
54272;DHT22;40184;53.362;5.216;2022-08-19T12:25:55;25.80;99.90
54272;DHT22;40184;53.362;5.216;2022-08-19T12:28:24;26.00;99.90
54272;DHT22;40184;53.362;5.216;2022-08-19T12:30:50;26.30;99.90
54272;DHT22;40184;53.362;5.216;2022-08-19T12:33:17;26.40;99.90
54272;DHT22;40184;53.362;5.216;2022-08-19T12:35:44;26.00;99.90
54272;DHT22;40184;53.362;5.216;2022-08-19T12:38:12;26.30;99.90
54272;DHT22;40184;53.362;5.216;2022-08-19T12:40:37;26.20;99.90
54272;DHT22;40184;53.362;5.216;2022-08-19T12:43:06;26.40;99.90
54272;DHT22;40184;53.362;5.216;2022-08-19T12:45:31;26.50;99.90
54272;DHT22;40184;53.362;5.216;2022-08-19T12:47:57;26.60;99.90
54272;DHT22;40184;53.362;5.216;2022-08-19T12:50:23;26.50;99.90
54272;DHT22;40184;53.362;5.216;2022-08-19T12:52:49;26.40;99.90
54272;DHT22;40184;53.362;5.216;2022-08-19T12:55:15;26.60;99.90
54272;DHT22;40184;53.362;5.216;2022-08-19T12:57:41;26.90;99.90
54272;DHT22;40184;53.362;5.216;2022-08-19T13:00:10;27.10;99.90
54272;DHT22;40184;53.362;5.216;2022-08-19T13:02:38;27.20;99.90
54272;DHT22;40184;53.362;5.216;2022-08-19T13:05:05;27.40;99.90
54272;DHT22;40184;53.362;5.216;2022-08-19T13:07:32;27.60;99.90
54272;DHT22;40184;53.362;5.216;2022-08-19T13:09:58;27.50;99.90
54272;DHT22;40184;53.362;5.216;2022-08-19T13:12:23;27.50;99.90
54272;DHT22;40184;53.362;5.216;2022-08-19T13:14:53;27.30;99.90
54272;DHT22;40184;53.362;5.216;2022-08-19T13:17:19;27.50;99.90
54272;DHT22;40184;53.362;5.216;2022-08-19T13:19:45;27.60;99.90
54272;DHT22;40184;53.362;5.216;2022-08-19T13:22:11;27.50;99.90
54272;DHT22;40184;53.362;5.216;2022-08-19T13:24:37;27.50;99.90
54272;DHT22;40184;53.362;5.216;2022-08-19T13:27:03;27.20;99.90
54272;DHT22;40184;53.362;5.216;2022-08-19T13:29:29;27.30;99.90
54272;DHT22;40184;53.362;5.216;2022-08-19T13:32:13;27.20;99.90
54272;DHT22;40184;53.362;5.216;2022-08-19T13:34:58;26.90;99.90
54272;DHT22;40184;53.362;5.216;2022-08-19T13:37:23;27.20;99.90
54272;DHT22;40184;53.362;5.216;2022-08-19T13:40:07;27.70;99.90
54272;DHT22;40184;53.362;5.216;2022-08-19T13:42:39;27.70;99.90
54272;DHT22;40184;53.362;5.216;2022-08-19T13:45:05;27.70;99.90
54272;DHT22;40184;53.362;5.216;2022-08-19T13:47:32;27.60;99.90
54272;DHT22;40184;53.362;5.216;2022-08-19T13:50:00;27.20;99.90
54272;DHT22;40184;53.362;5.216;2022-08-19T13:52:27;26.90;99.90
54272;DHT22;40184;53.362;5.216;2022-08-19T13:54:53;26.40;99.90
54272;DHT22;40184;53.362;5.216;2022-08-19T13:57:19;26.10;99.90
54272;DHT22;40184;53.362;5.216;2022-08-19T13:59:45;26.00;99.90
54272;DHT22;40184;53.362;5.216;2022-08-19T14:02:10;25.90;99.90
54272;DHT22;40184;53.362;5.216;2022-08-19T14:04:36;25.90;99.90
54272;DHT22;40184;53.362;5.216;2022-08-19T14:07:03;25.70;99.90
54272;DHT22;40184;53.362;5.216;2022-08-19T14:09:29;25.50;99.90
54272;DHT22;40184;53.362;5.216;2022-08-19T14:11:55;25.40;99.90
54272;DHT22;40184;53.362;5.216;2022-08-19T14:14:20;25.40;99.90
54272;DHT22;40184;53.362;5.216;2022-08-19T14:16:47;25.40;99.90
54272;DHT22;40184;53.362;5.216;2022-08-19T14:19:13;26.10;99.90
54272;DHT22;40184;53.362;5.216;2022-08-19T14:21:39;27.20;99.90
54272;DHT22;40184;53.362;5.216;2022-08-19T14:24:06;28.10;99.90
54272;DHT22;40184;53.362;5.216;2022-08-19T14:26:32;28.70;99.90
54272;DHT22;40184;53.362;5.216;2022-08-19T14:28:58;29.20;99.90
54272;DHT22;40184;53.362;5.216;2022-08-19T14:31:24;29.40;99.90
54272;DHT22;40184;53.362;5.216;2022-08-19T14:33:50;30.20;99.90
54272;DHT22;40184;53.362;5.216;2022-08-19T14:36:17;30.20;99.90
54272;DHT22;40184;53.362;5.216;2022-08-19T14:38:43;30.10;99.90
54272;DHT22;40184;53.362;5.216;2022-08-19T14:41:16;30.10;99.90
54272;DHT22;40184;53.362;5.216;2022-08-19T14:43:50;30.20;99.90
54272;DHT22;40184;53.362;5.216;2022-08-19T14:46:21;30.80;99.90
54272;DHT22;40184;53.362;5.216;2022-08-19T14:48:48;31.10;99.80
54272;DHT22;40184;53.362;5.216;2022-08-19T14:51:14;31.20;99.40
54272;DHT22;40184;53.362;5.216;2022-08-19T14:53:41;31.10;98.90
54272;DHT22;40184;53.362;5.216;2022-08-19T14:56:12;30.90;99.20
54272;DHT22;40184;53.362;5.216;2022-08-19T14:58:40;31.00;99.20
54272;DHT22;40184;53.362;5.216;2022-08-19T15:01:06;30.80;99.00
54272;DHT22;40184;53.362;5.216;2022-08-19T15:03:33;31.20;99.20
54272;DHT22;40184;53.362;5.216;2022-08-19T15:06:00;31.00;98.60
54272;DHT22;40184;53.362;5.216;2022-08-19T15:08:28;31.00;98.50
54272;DHT22;40184;53.362;5.216;2022-08-19T15:10:56;31.20;98.80
54272;DHT22;40184;53.362;5.216;2022-08-19T15:13:22;31.00;98.70
54272;DHT22;40184;53.362;5.216;2022-08-19T15:15:50;31.10;98.40
54272;DHT22;40184;53.362;5.216;2022-08-19T15:18:17;30.90;98.20
54272;DHT22;40184;53.362;5.216;2022-08-19T15:20:43;30.80;98.60
54272;DHT22;40184;53.362;5.216;2022-08-19T15:23:10;30.80;98.50
54272;DHT22;40184;53.362;5.216;2022-08-19T15:25:36;30.30;98.50
54272;DHT22;40184;53.362;5.216;2022-08-19T15:28:02;30.20;98.90
54272;DHT22;40184;53.362;5.216;2022-08-19T15:30:28;30.30;99.20
54272;DHT22;40184;53.362;5.216;2022-08-19T15:32:58;30.10;99.10
54272;DHT22;40184;53.362;5.216;2022-08-19T15:35:24;29.90;99.30
54272;DHT22;40184;53.362;5.216;2022-08-19T15:37:51;29.50;99.70
54272;DHT22;40184;53.362;5.216;2022-08-19T15:40:18;29.00;99.80
54272;DHT22;40184;53.362;5.216;2022-08-19T15:42:45;28.40;99.90
54272;DHT22;40184;53.362;5.216;2022-08-19T15:45:12;27.90;99.90
54272;DHT22;40184;53.362;5.216;2022-08-19T15:47:39;27.30;99.90
54272;DHT22;40184;53.362;5.216;2022-08-19T15:50:12;26.70;99.90